Time;durP1;ratioP1;P1;durP2;ratioP2;P2;SDS_P1;SDS_P2;PMS_P1;PMS_P2;Temp;Humidity;BMP_temperature;BMP_pressure;BME280_temperature;BME280_humidity;BME280_pressure;Samples;Min_cycle;Max_cycle;Signal;HPM_P1;HPM_P2
2023/03/26 00:02:15;;;;;;;111.60;66.18;;;;;;;14.95;83.51;98875.81;4943907;29;20134;-63
2023/03/26 00:05:04;;;;;;;137.85;76.93;;;;;;;14.93;83.51;98872.53;4926016;29;20067;-62
2023/03/26 00:07:47;;;;;;;153.48;86.60;;;;;;;14.89;83.68;98867.84;4943067;28;20051;-62
2023/03/26 00:10:36;;;;;;;156.00;90.38;;;;;;;15.17;82.73;98870.91;4944827;29;20126;-63
2023/03/26 00:13:18;;;;;;;170.50;93.60;;;;;;;15.27;82.35;98868.56;4930555;29;20472;-63
2023/03/26 00:16:07;;;;;;;161.40;91.72;;;;;;;15.28;81.95;98881.69;4923228;29;20727;-62
2023/03/26 00:18:50;;;;;;;160.13;92.57;;;;;;;15.37;81.79;98884.06;4944145;28;20044;-62
2023/03/26 00:21:40;;;;;;;162.00;91.30;;;;;;;15.36;81.12;98885.09;4928432;29;20060;-63
2023/03/26 00:24:28;;;;;;;162.07;92.93;;;;;;;15.04;82.18;98895.84;4945417;29;20055;-62
2023/03/26 00:27:17;;;;;;;159.15;90.28;;;;;;;15.14;82.85;98892.66;4946878;29;20574;-63
2023/03/26 00:30:00;;;;;;;158.13;88.20;;;;;;;15.14;81.86;98890.81;4946801;29;20139;-61
2023/03/26 00:32:50;;;;;;;155.88;84.85;;;;;;;15.30;81.86;98900.16;4927703;29;20043;-62
2023/03/26 00:35:46;;;;;;;141.50;81.25;;;;;;;15.11;82.22;98901.94;4945878;29;20073;-64
2023/03/26 00:38:23;;;;;;;124.45;72.72;;;;;;;15.01;81.84;98904.25;4931217;29;20067;-62
2023/03/26 00:41:21;;;;;;;124.07;72.70;;;;;;;15.19;81.93;98914.19;4927682;29;20229;-62
2023/03/26 00:44:10;;;;;;;114.90;63.15;;;;;;;15.26;81.59;98915.78;4943955;28;20151;-63
2023/03/26 00:46:54;;;;;;;94.03;58.00;;;;;;;15.21;81.56;98915.63;4928492;29;20074;-63
2023/03/26 00:49:45;;;;;;;86.90;54.10;;;;;;;15.00;82.31;98913.28;4944678;29;20047;-61
2023/03/26 00:52:27;;;;;;;77.00;46.35;;;;;;;14.81;82.49;98922.25;4927777;29;20063;-62
2023/03/26 00:55:17;;;;;;;77.30;46.05;;;;;;;14.76;83.37;98927.41;4945415;29;20074;-61
2023/03/26 00:58:00;;;;;;;67.60;41.22;;;;;;;14.74;83.64;98930.28;4927066;29;20051;-62
2023/03/26 01:00:56;;;;;;;64.40;39.50;;;;;;;14.76;84.03;98938.06;4946659;29;20055;-62
2023/03/26 01:03:39;;;;;;;58.13;36.70;;;;;;;15.07;83.53;98948.75;4931328;29;20482;-62
2023/03/26 01:06:47;;;;;;;62.15;39.80;;;;;;;15.04;82.86;98946.53;4947442;28;20067;-61
2023/03/26 01:09:34;;;;;;;65.35;42.08;;;;;;;14.94;83.11;98942.69;4947367;29;20078;-63
2023/03/26 01:12:30;;;;;;;79.13;49.35;;;;;;;14.89;83.25;98946.00;4946934;28;20055;-63
2023/03/26 01:15:12;;;;;;;94.47;56.67;;;;;;;14.78;83.75;98944.03;4928756;29;20079;-62
2023/03/26 01:18:03;;;;;;;113.47;68.65;;;;;;;14.71;83.94;98954.69;4928719;29;20110;-61
2023/03/26 01:21:04;;;;;;;116.30;70.75;;;;;;;14.74;83.88;98956.09;4945423;29;20495;-63
2023/03/26 01:23:51;;;;;;;122.00;68.68;;;;;;;14.69;84.04;98961.28;4942932;29;20047;-62
2023/03/26 01:27:11;;;;;;;110.93;67.18;;;;;;;14.65;83.70;98968.03;4947080;29;20071;-62
2023/03/26 01:30:16;;;;;;;112.78;65.97;;;;;;;14.78;83.25;98965.34;4946190;28;20063;-63
2023/03/26 01:34:04;;;;;;;108.40;66.10;;;;;;;15.25;81.63;98967.53;4941915;28;20051;-61
2023/03/26 01:37:05;;;;;;;129.00;79.00;;;;;;;15.21;80.94;98955.66;4930573;28;20540;-62
2023/03/26 01:40:08;;;;;;;125.25;79.97;;;;;;;15.28;81.04;98956.41;4928283;29;20789;-60
2023/03/26 01:43:11;;;;;;;129.15;81.30;;;;;;;15.38;80.24;98960.44;4924869;28;20052;-61
2023/03/26 01:45:49;;;;;;;115.97;72.78;;;;;;;15.40;80.10;98958.38;4925587;29;20067;-63
2023/03/26 01:48:54;;;;;;;102.38;62.28;;;;;;;15.46;79.59;98965.50;4913036;29;20047;-62
2023/03/26 01:51:35;;;;;;;80.05;48.95;;;;;;;15.67;79.12;98965.97;4923963;29;20542;-62
2023/03/26 01:54:27;;;;;;;62.85;38.92;;;;;;;16.16;76.87;98972.28;4939433;29;20055;-64
2023/03/26 01:57:36;;;;;;;48.40;31.48;;;;;;;16.68;75.17;98978.94;4911427;29;20051;-61
2023/03/26 02:00:37;;;;;;;46.05;27.63;;;;;;;17.26;72.89;98981.03;4926821;29;20353;-62
2023/03/26 02:03:36;;;;;;;37.42;24.38;;;;;;;17.60;71.10;98972.28;4942493;29;20039;-61
2023/03/26 02:06:46;;;;;;;34.45;21.63;;;;;;;17.99;70.09;98969.97;4924128;29;20055;-62
2023/03/26 02:09:49;;;;;;;34.45;22.30;;;;;;;18.11;68.25;98970.78;4907857;29;20078;-60
2023/03/26 02:12:39;;;;;;;34.22;22.98;;;;;;;17.91;68.80;98973.81;4925539;29;20047;-64
2023/03/26 02:15:22;;;;;;;36.00;23.73;;;;;;;18.28;68.81;98982.41;4927543;29;20590;-62
2023/03/26 02:18:12;;;;;;;37.00;23.48;;;;;;;18.71;66.97;98976.66;4926460;29;20159;-62
2023/03/26 02:20:54;;;;;;;40.75;24.23;;;;;;;18.85;65.54;98981.50;4928155;29;20364;-62
2023/03/26 02:23:56;;;;;;;33.95;22.10;;;;;;;18.88;66.55;98984.75;4941393;29;20091;-62
2023/03/26 02:26:41;;;;;;;37.45;23.52;;;;;;;19.51;63.12;98993.50;4941437;29;20799;-62
2023/03/26 02:29:36;;;;;;;34.92;23.13;;;;;;;19.93;62.47;98985.81;4917600;29;20664;-62
2023/03/26 02:32:27;;;;;;;30.98;21.95;;;;;;;20.42;60.99;98994.09;4936914;29;20700;-63
2023/03/26 02:35:10;;;;;;;34.78;22.40;;;;;;;20.72;60.18;98997.16;4922224;29;20611;-63
2023/03/26 02:38:05;;;;;;;30.58;21.30;;;;;;;21.12;58.98;98998.69;4942441;29;20432;-62
2023/03/26 02:40:54;;;;;;;33.38;21.10;;;;;;;21.10;58.93;98996.25;4922902;29;20051;-62
2023/03/26 02:43:50;;;;;;;32.30;20.65;;;;;;;21.25;58.50;98993.75;4917337;28;20047;-62
2023/03/26 02:46:57;;;;;;;33.15;22.08;;;;;;;20.99;59.14;98999.91;4944989;29;20046;-61
2023/03/26 02:49:45;;;;;;;35.15;23.00;;;;;;;20.68;58.60;98997.91;4944788;29;20055;-62
2023/03/26 02:53:03;;;;;;;32.97;20.95;;;;;;;20.32;58.75;98986.69;4934966;28;20042;-63
2023/03/26 02:55:48;;;;;;;35.03;23.02;;;;;;;20.46;59.80;98998.72;4944704;29;20062;-62
2023/03/26 02:58:45;;;;;;;39.58;25.42;;;;;;;20.38;59.54;98996.47;4912060;29;20063;-64
2023/03/26 03:01:29;;;;;;;38.77;25.03;;;;;;;20.24;62.03;99005.91;4919857;29;21624;-62
2023/03/26 03:04:20;;;;;;;37.63;25.00;;;;;;;20.18;61.51;99017.66;4930535;28;20044;-62
2023/03/26 03:07:13;;;;;;;29.08;20.55;;;;;;;20.27;59.69;99023.44;4920342;29;20071;-64
2023/03/26 03:10:08;;;;;;;28.05;18.77;;;;;;;20.19;62.82;99032.72;4925707;29;20062;-61
2023/03/26 03:13:06;;;;;;;26.10;17.73;;;;;;;20.76;60.00;99032.47;4944275;28;20043;-61
2023/03/26 03:15:55;;;;;;;19.58;13.88;;;;;;;20.75;59.64;99042.44;4930492;29;20537;-61
2023/03/26 03:18:37;;;;;;;23.02;13.48;;;;;;;20.73;59.13;99039.16;4943732;28;20047;-62
2023/03/26 03:21:33;;;;;;;17.08;12.07;;;;;;;20.65;58.44;99049.56;4943044;28;20060;-62
2023/03/26 03:24:22;;;;;;;19.45;12.52;;;;;;;20.84;58.27;99057.09;4907778;29;20710;-60
2023/03/26 03:27:11;;;;;;;21.50;11.60;;;;;;;21.10;57.94;99046.63;4923216;28;20043;-63
2023/03/26 03:30:00;;;;;;;16.70;11.30;;;;;;;20.78;55.37;99062.66;4925824;29;20039;-61
2023/03/26 03:32:49;;;;;;;19.27;10.60;;;;;;;20.86;56.71;99054.94;4935061;29;20634;-62
2023/03/26 03:35:34;;;;;;;21.63;11.95;;;;;;;20.74;58.34;99059.66;4923780;29;20046;-61
2023/03/26 03:38:24;;;;;;;22.60;11.88;;;;;;;20.75;58.80;99058.59;4925147;29;20100;-62
2023/03/26 03:41:07;;;;;;;23.55;10.88;;;;;;;20.67;58.90;99066.28;4938644;29;20081;-61
2023/03/26 03:44:03;;;;;;;17.27;11.00;;;;;;;20.61;58.03;99060.00;4928745;28;20109;-61
2023/03/26 03:46:39;;;;;;;16.60;9.50;;;;;;;19.91;58.01;99067.78;4945493;29;20055;-61
2023/03/26 03:49:34;;;;;;;19.27;10.80;;;;;;;20.50;58.12;99071.69;4960743;28;20055;-61
2023/03/26 03:52:10;;;;;;;16.30;8.75;;;;;;;20.42;56.50;99070.22;4936864;28;20043;-61
2023/03/26 03:55:02;;;;;;;21.37;9.63;;;;;;;20.40;58.52;99076.94;4931906;29;20039;-61
2023/03/26 03:57:58;;;;;;;16.00;9.95;;;;;;;20.46;56.76;99076.75;4950955;28;20673;-61
2023/03/26 04:00:59;;;;;;;17.52;9.45;;;;;;;20.38;56.25;99082.56;4926605;29;20058;-62
2023/03/26 04:03:55;;;;;;;17.10;10.35;;;;;;;20.76;57.45;99083.59;4929642;29;20520;-62
2023/03/26 04:07:00;;;;;;;16.13;8.40;;;;;;;20.70;56.93;99088.13;4918980;29;20061;-61
2023/03/26 04:10:27;;;;;;;14.88;8.60;;;;;;;20.85;58.54;99082.13;4926907;29;20063;-62
2023/03/26 04:13:32;;;;;;;19.45;9.00;;;;;;;20.98;56.91;99084.44;4906118;29;20048;-61
2023/03/26 04:16:34;;;;;;;16.50;8.82;;;;;;;20.95;57.18;99090.34;4915457;29;20047;-60
2023/03/26 04:19:30;;;;;;;16.35;8.85;;;;;;;21.13;57.87;99087.38;4931845;29;20367;-63
2023/03/26 04:22:10;;;;;;;22.42;12.68;;;;;;;21.12;55.69;99091.09;4931327;29;20078;-61
2023/03/26 04:25:06;;;;;;;21.45;12.30;;;;;;;21.21;57.50;99095.00;4948455;29;20106;-61
2023/03/26 04:28:05;;;;;;;21.08;11.63;;;;;;;21.26;55.61;99092.38;4931988;29;20126;-61
2023/03/26 04:31:05;;;;;;;20.20;10.82;;;;;;;21.32;55.47;99094.06;4949076;29;20610;-61
2023/03/26 04:33:55;;;;;;;18.88;10.52;;;;;;;21.55;54.78;99092.16;4945347;28;20051;-61
2023/03/26 04:36:53;;;;;;;16.02;11.27;;;;;;;21.59;54.29;99090.56;4932121;29;20269;-62
2023/03/26 04:39:39;;;;;;;17.50;11.85;;;;;;;21.97;54.16;99081.50;4932189;29;20117;-62
2023/03/26 04:42:29;;;;;;;25.08;12.90;;;;;;;22.31;54.90;99086.38;4948373;28;20059;-60
2023/03/26 04:45:24;;;;;;;23.90;14.02;;;;;;;22.79;53.98;99088.03;4905370;29;20062;-62
2023/03/26 04:48:20;;;;;;;31.92;18.63;;;;;;;23.32;52.77;99085.31;4926281;29;20047;-61
2023/03/26 04:50:57;;;;;;;34.15;21.60;;;;;;;23.10;52.28;99080.88;4909895;29;20385;-61
2023/03/26 04:53:53;;;;;;;34.85;22.08;;;;;;;23.88;52.52;99076.25;4924016;29;20059;-62
2023/03/26 04:57:02;;;;;;;33.42;22.52;;;;;;;23.90;51.83;99079.47;4927979;29;20648;-62
2023/03/26 04:59:55;;;;;;;31.42;22.70;;;;;;;23.83;49.63;99080.84;4938072;29;20051;-61
2023/03/26 05:02:44;;;;;;;31.65;22.10;;;;;;;24.41;50.85;99074.09;4907971;29;20052;-61
2023/03/26 05:05:34;;;;;;;34.88;21.10;;;;;;;24.69;50.38;99069.97;4923031;29;20059;-61
2023/03/26 05:08:23;;;;;;;34.88;20.85;;;;;;;24.79;46.87;99073.44;4911104;29;20050;-62
2023/03/26 05:11:10;;;;;;;28.70;19.65;;;;;;;25.45;46.77;99075.91;4912850;29;20044;-63
2023/03/26 05:13:59;;;;;;;24.92;16.63;;;;;;;25.23;46.54;99068.16;4910745;29;20048;-62
2023/03/26 05:16:43;;;;;;;22.75;13.63;;;;;;;25.09;48.68;99079.91;4910415;29;20052;-61
2023/03/26 05:19:32;;;;;;;22.75;11.88;;;;;;;25.52;45.67;99076.41;4914236;29;20535;-64
2023/03/26 05:22:28;;;;;;;20.42;11.73;;;;;;;25.27;47.84;99065.72;4911772;29;20110;-61
2023/03/26 05:25:13;;;;;;;18.23;10.43;;;;;;;25.75;44.04;99069.53;4910527;29;20054;-62
2023/03/26 05:28:03;;;;;;;17.05;11.32;;;;;;;25.87;47.09;99076.22;4909312;29;20077;-64
2023/03/26 05:31:31;;;;;;;20.27;9.98;;;;;;;26.15;45.84;99069.19;4913113;29;22605;-62
2023/03/26 05:34:25;;;;;;;16.58;10.25;;;;;;;25.75;45.82;99074.94;4908883;29;20110;-60
2023/03/26 05:37:10;;;;;;;14.57;9.15;;;;;;;26.16;45.18;99062.66;4908197;29;20110;-62
2023/03/26 05:40:12;;;;;;;19.02;9.10;;;;;;;26.16;45.82;99061.84;4915304;29;20146;-62
2023/03/26 05:43:04;;;;;;;13.43;9.02;;;;;;;26.38;46.61;99061.41;4921577;28;20546;-62
2023/03/26 05:46:11;;;;;;;16.67;8.02;;;;;;;26.49;42.77;99062.94;4934051;28;20051;-61
2023/03/26 05:49:00;;;;;;;14.85;8.27;;;;;;;26.03;42.57;99055.16;4930539;29;20059;-62
2023/03/26 05:51:44;;;;;;;15.97;9.47;;;;;;;26.09;43.09;99053.22;4912323;28;20113;-60
2023/03/26 05:55:05;;;;;;;14.13;7.28;;;;;;;26.62;45.33;99043.22;4945894;29;20055;-61
2023/03/26 05:58:06;;;;;;;19.50;9.05;;;;;;;26.34;44.04;99053.00;4944054;29;20166;-59
2023/03/26 06:01:05;;;;;;;11.15;7.20;;;;;;;26.39;42.34;99044.81;4946712;28;20114;-61
2023/03/26 06:04:07;;;;;;;12.10;7.80;;;;;;;26.73;43.63;99040.09;4915567;29;20050;-61
2023/03/26 06:07:16;;;;;;;17.00;9.35;;;;;;;26.66;41.62;99038.81;4943033;28;20058;-56
2023/03/26 06:10:16;;;;;;;17.77;10.30;;;;;;;26.88;42.50;99041.03;4943905;28;20774;-60
2023/03/26 06:12:59;;;;;;;20.88;11.50;;;;;;;26.48;44.38;99040.38;4946540;28;20062;-60
2023/03/26 06:15:49;;;;;;;17.00;10.30;;;;;;;26.11;45.71;99037.47;4913173;29;20044;-60
2023/03/26 06:18:36;;;;;;;15.88;10.15;;;;;;;25.84;45.43;99027.13;4578120;29;10000032;-61
2023/03/26 06:21:51;;;;;;;20.83;11.57;;;;;;;26.43;44.09;99029.56;4943807;28;20118;-62
2023/03/26 06:25:15;;;;;;;20.85;10.90;;;;;;;26.19;45.52;99031.41;4908829;29;20051;-60
2023/03/26 06:28:22;;;;;;;19.52;9.98;;;;;;;26.18;45.81;99024.38;4923226;29;20493;-64
2023/03/26 06:31:12;;;;;;;15.90;9.90;;;;;;;26.12;44.95;99017.34;4921996;29;20639;-61
2023/03/26 06:34:18;;;;;;;16.80;9.77;;;;;;;25.92;42.57;99013.75;4941601;29;20122;-60
2023/03/26 06:37:00;;;;;;;18.58;10.73;;;;;;;26.33;44.65;99003.31;4912366;29;20054;-64
2023/03/26 06:39:51;;;;;;;18.15;12.10;;;;;;;26.43;47.62;99007.03;4925428;29;20047;-60
2023/03/26 06:42:51;;;;;;;18.25;11.15;;;;;;;26.19;46.53;99013.22;4940110;28;20184;-60
2023/03/26 06:46:34;;;;;;;26.23;11.85;;;;;;;26.31;45.07;99004.72;4882720;29;20084;-59
2023/03/26 06:49:15;;;;;;;;;;;;;;;25.86;45.47;99003.19;4885785;29;20056;-62
2023/03/26 06:52:23;;;;;;;17.08;10.82;;;;;;;26.07;43.96;98995.72;4919403;29;20267;-62
2023/03/26 06:55:13;;;;;;;18.20;9.20;;;;;;;25.56;45.68;98989.88;4922772;29;20044;-63
2023/03/26 06:58:31;;;;;;;12.93;9.07;;;;;;;25.99;46.26;98991.69;4928104;29;20059;-64
2023/03/26 07:01:32;;;;;;;18.23;9.27;;;;;;;26.11;46.23;98983.97;4924893;29;20138;-67
2023/03/26 07:04:40;;;;;;;16.35;9.25;;;;;;;25.98;43.58;98983.84;4927671;29;20058;-66
2023/03/26 07:07:59;;;;;;;15.75;10.27;;;;;;;25.86;44.08;98970.63;4854567;29;20057;-61
2023/03/26 07:11:11;;;;;;;18.65;8.85;;;;;;;25.87;44.60;98972.25;4903598;29;20055;-65
2023/03/26 07:14:33;;;;;;;13.85;9.05;;;;;;;25.70;43.85;98961.03;4897951;29;20047;-66
2023/03/26 07:17:47;;;;;;;12.95;8.68;;;;;;;25.77;44.58;98967.72;4923634;29;20752;-62
2023/03/26 07:20:33;;;;;;;13.55;8.77;;;;;;;25.76;43.91;98959.88;4929253;29;20079;-64
2023/03/26 07:23:32;;;;;;;17.88;8.88;;;;;;;25.55;45.66;98948.38;4907724;29;20052;-62
2023/03/26 07:27:09;;;;;;;13.68;8.93;;;;;;;25.61;44.91;98949.97;4890520;29;20195;-63
2023/03/26 07:30:22;;;;;;;20.05;8.95;;;;;;;25.65;45.41;98948.31;4928233;29;20098;-63
2023/03/26 07:34:11;;;;;;;15.98;9.15;;;;;;;25.94;46.21;98945.59;4936288;29;20118;-61
2023/03/26 07:37:46;;;;;;;17.52;9.68;;;;;;;25.46;46.16;98941.91;4866019;29;20615;-59
2023/03/26 07:41:09;;;;;;;16.73;9.20;;;;;;;26.15;43.93;98932.63;4874939;29;20400;-60
2023/03/26 07:44:54;;;;;;;14.35;8.57;;;;;;;25.78;43.12;98923.22;4937662;28;20072;-57
2023/03/26 07:48:20;;;;;;;19.25;8.80;;;;;;;25.91;43.68;98925.25;4941851;29;20046;-59
2023/03/26 07:51:31;;;;;;;17.50;9.85;;;;;;;26.02;43.43;98925.16;4902102;29;20146;-59
2023/03/26 07:54:36;;;;;;;15.48;9.10;;;;;;;25.52;41.63;98910.97;4912109;29;20051;-60
2023/03/26 07:57:53;;;;;;;15.52;9.50;;;;;;;25.51;41.10;98909.31;4946513;28;20043;-61
2023/03/26 08:01:41;;;;;;;17.48;9.10;;;;;;;25.82;42.37;98899.84;4932967;29;20054;-60
2023/03/26 08:04:49;;;;;;;12.13;7.65;;;;;;;25.96;42.71;98894.53;4928530;29;20436;-61
2023/03/26 08:08:37;;;;;;;11.23;7.85;;;;;;;25.62;41.82;98889.19;4943371;29;20173;-60
2023/03/26 08:11:59;;;;;;;16.70;9.70;;;;;;;25.79;43.12;98884.16;4832650;29;20076;-62
2023/03/26 08:15:07;;;;;;;15.27;9.23;;;;;;;25.59;42.83;98884.31;4943912;29;20828;-64
2023/03/26 08:18:20;;;;;;;16.70;10.23;;;;;;;25.68;42.80;98879.91;4945619;28;20054;-65
2023/03/26 08:21:12;;;;;;;17.58;11.57;;;;;;;25.36;42.44;98883.13;4945502;29;20044;-64
2023/03/26 08:24:25;;;;;;;17.08;10.55;;;;;;;25.34;42.07;98868.25;4945449;29;20098;-62
2023/03/26 08:27:22;;;;;;;15.80;10.27;;;;;;;25.47;42.58;98862.16;4946653;29;20108;-62
2023/03/26 08:30:30;;;;;;;16.27;10.63;;;;;;;25.59;43.00;98862.63;4929828;29;20113;-61
2023/03/26 08:33:20;;;;;;;15.70;9.75;;;;;;;25.38;41.05;98856.56;4945488;28;20059;-61
2023/03/26 08:36:09;;;;;;;20.95;11.23;;;;;;;25.20;41.91;98853.72;4946334;29;20051;-61
2023/03/26 08:38:51;;;;;;;16.23;9.35;;;;;;;25.29;45.86;98844.72;4945850;29;20125;-61
2023/03/26 08:41:43;;;;;;;14.85;9.20;;;;;;;25.49;43.29;98847.22;4929629;29;20051;-63
2023/03/26 08:45:10;;;;;;;12.93;9.60;;;;;;;25.50;45.40;98835.28;4947860;29;20153;-65
2023/03/26 08:47:59;;;;;;;13.32;8.80;;;;;;;25.40;42.25;98835.38;4948945;29;20047;-65
2023/03/26 08:51:09;;;;;;;15.50;9.02;;;;;;;25.29;43.63;98835.75;4934581;29;20140;-63
2023/03/26 08:54:08;;;;;;;12.30;8.63;;;;;;;25.32;44.86;98830.56;4941139;28;20070;-63
2023/03/26 08:57:39;;;;;;;12.70;8.95;;;;;;;24.97;43.80;98823.56;4946848;29;20055;-61
2023/03/26 09:00:25;;;;;;;16.23;9.70;;;;;;;25.08;43.18;98813.44;4916249;29;20118;-62
2023/03/26 09:03:35;;;;;;;17.13;10.52;;;;;;;25.11;44.38;98799.31;4942167;29;20051;-61
2023/03/26 09:06:26;;;;;;;14.00;9.80;;;;;;;25.13;45.42;98799.84;4945889;29;20078;-61
2023/03/26 09:09:44;;;;;;;15.68;9.50;;;;;;;25.07;46.21;98795.56;4946307;29;20569;-62
2023/03/26 09:12:40;;;;;;;19.52;9.35;;;;;;;25.00;42.09;98782.31;4926069;29;20051;-60
2023/03/26 09:15:53;;;;;;;10.88;7.75;;;;;;;25.18;44.02;98782.75;4946654;28;20058;-54
2023/03/26 09:19:12;;;;;;;11.70;7.03;;;;;;;25.25;40.75;98767.75;4946935;29;20058;-60
2023/03/26 09:22:04;;;;;;;13.68;6.63;;;;;;;25.33;43.29;98777.16;4951129;28;20046;-62
2023/03/26 09:25:14;;;;;;;12.95;6.93;;;;;;;25.42;43.03;98767.28;4928512;29;20376;-64
2023/03/26 09:28:35;;;;;;;8.68;6.20;;;;;;;25.26;38.80;98757.72;4947844;28;20430;-57
2023/03/26 09:31:47;;;;;;;14.52;6.05;;;;;;;25.07;39.94;98752.19;4946419;29;20560;-60
2023/03/26 09:35:20;;;;;;;7.85;5.95;;;;;;;25.25;40.62;98747.97;4945839;28;20084;-58
2023/03/26 09:38:02;;;;;;;12.27;6.20;;;;;;;25.02;42.40;98747.63;4943591;29;20791;-58
2023/03/26 09:41:07;;;;;;;8.45;5.15;;;;;;;25.20;41.79;98739.88;4945372;29;20043;-59
2023/03/26 09:44:04;;;;;;;9.18;4.82;;;;;;;25.25;40.77;98731.69;4945588;29;20058;-59
2023/03/26 09:47:02;;;;;;;;;;;;;;;25.13;39.25;98737.50;4942186;29;20047;-62
2023/03/26 09:49:49;;;;;;;8.20;4.82;;;;;;;25.04;38.54;98728.38;4930892;29;19926;-61
2023/03/26 09:52:53;;;;;;;8.00;4.25;;;;;;;25.04;39.47;98726.47;4945741;28;20051;-58
2023/03/26 09:55:44;;;;;;;6.65;4.00;;;;;;;25.02;38.74;98722.44;4946939;28;20623;-57
2023/03/26 09:58:41;;;;;;;8.68;4.60;;;;;;;25.08;40.53;98715.88;4941467;28;20059;-57
2023/03/26 10:02:10;;;;;;;12.18;5.40;;;;;;;24.89;40.80;98713.06;4944033;28;20518;-57
2023/03/26 10:05:19;;;;;;;12.45;5.10;;;;;;;24.81;41.54;98710.13;4941983;29;20085;-58
2023/03/26 10:08:19;;;;;;;8.23;4.47;;;;;;;24.74;39.02;98706.97;4938157;29;20052;-61
2023/03/26 10:11:44;;;;;;;7.43;3.55;;;;;;;24.54;38.29;98697.09;4939547;28;20113;-60
2023/03/26 10:14:38;;;;;;;10.07;4.32;;;;;;;24.74;39.28;98704.25;4943076;29;20070;-60
2023/03/26 10:18:00;;;;;;;8.23;4.18;;;;;;;24.80;39.29;98700.38;4941683;29;20056;-60
2023/03/26 10:21:20;;;;;;;4.40;3.40;;;;;;;24.81;39.08;98696.59;4944798;29;20047;-61
2023/03/26 10:24:58;;;;;;;7.57;3.70;;;;;;;25.00;39.58;98692.09;4944497;29;20051;-64
2023/03/26 10:27:51;;;;;;;6.35;3.13;;;;;;;24.93;37.49;98688.91;4915248;29;20066;-61
2023/03/26 10:30:59;;;;;;;7.35;3.42;;;;;;;24.96;38.62;98686.44;4940912;29;20110;-62
2023/03/26 10:34:22;;;;;;;6.82;2.90;;;;;;;24.89;36.98;98680.56;4943727;29;20050;-60
2023/03/26 10:37:40;;;;;;;8.07;3.28;;;;;;;24.93;39.27;98684.31;4940016;29;20078;-59
2023/03/26 10:40:29;;;;;;;9.27;3.47;;;;;;;24.90;40.10;98676.75;4940413;29;20066;-60
2023/03/26 10:43:48;;;;;;;5.10;3.22;;;;;;;24.50;39.19;98677.09;4930367;29;20078;-61
2023/03/26 10:46:51;;;;;;;5.60;3.35;;;;;;;24.53;38.66;98676.50;4944129;28;20047;-60
2023/03/26 10:49:55;;;;;;;6.57;3.30;;;;;;;24.56;41.69;98682.16;4945204;28;20051;-59
2023/03/26 10:52:48;;;;;;;8.40;4.05;;;;;;;24.54;42.26;98675.44;4942727;29;20047;-59
2023/03/26 10:55:46;;;;;;;6.30;4.18;;;;;;;24.55;43.67;98677.84;4940750;28;20051;-60
2023/03/26 10:58:35;;;;;;;7.28;4.00;;;;;;;24.47;40.80;98669.53;4926410;29;20061;-60
2023/03/26 11:01:31;;;;;;;;;;;;;;;24.48;44.36;98679.25;4936414;28;20835;-59
2023/03/26 11:04:40;;;;;;;13.77;4.05;;;;;;;24.55;43.08;98666.22;4944805;28;20418;-61
2023/03/26 11:07:44;;;;;;;10.05;4.30;;;;;;;24.68;43.11;98664.75;4929464;29;20094;-60
2023/03/26 11:10:35;;;;;;;8.60;4.13;;;;;;;24.66;42.31;98669.63;4945361;29;20051;-60
2023/03/26 11:13:39;;;;;;;9.52;4.60;;;;;;;24.69;43.45;98675.31;4944795;29;20062;-62
2023/03/26 11:16:30;;;;;;;8.40;4.07;;;;;;;24.63;41.80;98670.19;4937567;29;20090;-58
2023/03/26 11:19:43;;;;;;;5.00;3.83;;;;;;;24.55;40.37;98668.91;4945666;28;20047;-59
2023/03/26 11:22:50;;;;;;;10.45;4.90;;;;;;;24.62;41.71;98666.69;4945709;28;20090;-61
2023/03/26 11:25:54;;;;;;;10.45;5.25;;;;;;;24.58;43.23;98668.34;4931814;29;20059;-58
2023/03/26 11:28:58;;;;;;;9.10;4.95;;;;;;;24.49;44.31;98670.03;4940555;28;20146;-60
2023/03/26 11:32:02;;;;;;;15.55;5.28;;;;;;;24.41;43.46;98663.34;4929564;29;20142;-61
2023/03/26 11:35:25;;;;;;;7.28;4.18;;;;;;;24.42;44.29;98661.44;4945011;29;20054;-61
2023/03/26 11:38:28;;;;;;;7.32;3.85;;;;;;;24.29;41.58;98653.97;4945110;29;20467;-61
2023/03/26 11:41:32;;;;;;;10.13;4.28;;;;;;;24.22;42.46;98653.47;4936100;28;20343;-65
2023/03/26 11:44:33;;;;;;;7.70;4.53;;;;;;;24.20;42.72;98656.47;4945073;29;20125;-60
2023/03/26 11:47:27;;;;;;;5.93;3.38;;;;;;;24.10;42.81;98651.91;4924214;29;20052;-66
2023/03/26 11:50:18;;;;;;;8.60;4.80;;;;;;;24.08;42.91;98659.50;4924594;29;20051;-65
2023/03/26 11:53:22;;;;;;;8.73;3.38;;;;;;;24.13;43.69;98653.22;4925475;29;20777;-64
2023/03/26 11:56:13;;;;;;;5.13;3.33;;;;;;;24.04;43.02;98655.72;4921409;29;20653;-61
2023/03/26 11:59:12;;;;;;;7.95;3.13;;;;;;;24.03;43.24;98654.09;4923512;29;20058;-59
2023/03/26 12:02:18;;;;;;;5.72;3.13;;;;;;;23.94;45.27;98647.66;4925396;29;20055;-62
2023/03/26 12:05:35;;;;;;;6.05;3.13;;;;;;;23.86;42.53;98656.38;4926308;29;20055;-60
2023/03/26 12:08:46;;;;;;;8.15;2.85;;;;;;;23.85;43.75;98649.38;4909672;29;20126;-61
2023/03/26 12:11:37;;;;;;;13.15;2.83;;;;;;;23.80;42.33;98645.88;4919549;29;20902;-61
2023/03/26 12:14:25;;;;;;;5.38;3.05;;;;;;;23.75;41.45;98652.13;4925897;29;20146;-60
2023/03/26 12:17:20;;;;;;;4.30;2.80;;;;;;;23.70;43.08;98655.66;4926250;29;20051;-56
2023/03/26 12:20:24;;;;;;;5.82;2.58;;;;;;;23.70;43.69;98652.16;4927029;29;20048;-61
2023/03/26 12:23:44;;;;;;;15.68;3.13;;;;;;;23.64;43.91;98645.16;4928566;29;20047;-58
2023/03/26 12:26:34;;;;;;;5.38;2.83;;;;;;;23.52;44.20;98647.38;4909612;29;20059;-60
2023/03/26 12:29:24;;;;;;;15.18;3.50;;;;;;;23.43;42.82;98647.13;4928218;29;20047;-60
2023/03/26 12:32:13;;;;;;;7.70;3.20;;;;;;;23.46;42.86;98651.19;4928069;29;20486;-61
2023/03/26 12:35:12;;;;;;;10.02;3.20;;;;;;;23.35;43.83;98655.00;4929724;29;20139;-61
2023/03/26 12:38:13;;;;;;;11.95;3.65;;;;;;;23.30;44.87;98647.72;4926228;29;20471;-60
2023/03/26 12:41:22;;;;;;;8.57;3.50;;;;;;;23.25;44.72;98645.84;4925165;29;20371;-57
2023/03/26 12:44:32;;;;;;;11.10;3.90;;;;;;;23.14;45.11;98649.66;4929334;29;20106;-61
2023/03/26 12:47:39;;;;;;;6.65;3.60;;;;;;;23.13;44.91;98642.63;4940823;28;20047;-61
2023/03/26 12:50:47;;;;;;;5.88;3.67;;;;;;;23.11;47.34;98647.50;4944234;29;20138;-60
2023/03/26 12:54:14;;;;;;;12.70;4.85;;;;;;;23.00;46.80;98648.63;4947565;28;20059;-61
2023/03/26 12:57:19;;;;;;;12.00;4.28;;;;;;;22.82;46.12;98652.72;4942631;28;20050;-60
2023/03/26 13:00:21;;;;;;;15.86;3.06;;;;;;;22.76;46.47;98655.69;4602689;28;10001072;-59
2023/03/26 13:03:40;;;;;;;13.30;4.68;;;;;;;22.72;48.62;98647.31;4925238;28;20066;-62
2023/03/26 13:06:52;;;;;;;9.10;3.70;;;;;;;22.58;47.04;98651.63;4944095;28;20070;-60
2023/03/26 13:10:14;;;;;;;10.25;4.18;;;;;;;22.57;48.87;98652.69;4915653;28;20138;-61
2023/03/26 13:13:01;;;;;;;8.35;4.35;;;;;;;22.54;49.80;98657.84;4946005;28;20051;-62
2023/03/26 13:15:59;;;;;;;8.83;4.10;;;;;;;22.45;47.84;98664.84;4942467;29;20066;-60
2023/03/26 13:18:58;;;;;;;15.48;5.90;;;;;;;22.49;48.48;98660.53;4945175;29;20301;-63
2023/03/26 13:22:06;;;;;;;12.15;4.68;;;;;;;22.33;49.43;98670.53;4927868;29;20118;-60
2023/03/26 13:25:15;;;;;;;12.85;4.40;;;;;;;22.32;49.91;98663.50;4585057;29;10001276;-59
2023/03/26 13:28:22;;;;;;;12.65;4.38;;;;;;;22.23;50.89;98662.41;4941123;28;20138;-61
2023/03/26 13:31:15;;;;;;;9.23;5.00;;;;;;;22.16;50.97;98661.88;4941169;29;20444;-60
2023/03/26 13:34:42;;;;;;;6.63;4.22;;;;;;;22.09;51.73;98669.41;4947813;28;20055;-62
2023/03/26 13:37:35;;;;;;;9.55;4.82;;;;;;;22.00;51.94;98666.44;4934110;28;20210;-61
2023/03/26 13:40:25;;;;;;;10.35;4.15;;;;;;;21.90;52.85;98664.50;4940282;29;20074;-60
2023/03/26 13:43:14;;;;;;;6.60;4.00;;;;;;;21.92;52.80;98667.78;4945372;28;20058;-60
2023/03/26 13:46:25;;;;;;;6.22;4.28;;;;;;;21.85;52.83;98675.28;4943553;28;20329;-60
2023/03/26 13:49:39;;;;;;;7.32;4.32;;;;;;;21.79;52.90;98683.59;4945308;28;20071;-60
2023/03/26 13:52:32;;;;;;;9.55;4.70;;;;;;;21.67;53.54;98680.34;4940350;29;20140;-57
2023/03/26 13:55:42;;;;;;;5.93;4.63;;;;;;;21.59;53.25;98684.38;4943681;28;20418;-59
2023/03/26 13:58:37;;;;;;;8.27;4.10;;;;;;;21.57;54.16;98683.00;4945219;29;20059;-64